X  Close Metar Aviation Weather Data     KMLB Melbourne Orlando International Airport
Temperature
73°F Temperature
66°F Dewpoint
78% Humidity



Wind
7 MPH
11 KM/H
3 M/S
6 KTS



120°
ESE
Current Conditions

Clear Clear
Pressure 1022.02 (hPa) - 30.18 (inHg)
Visibility 10 (mile) - 16.1 (km)
Airport
Airport-code KMLB

Location: Melbourne Orlando International Airport
Distance: 4 (mi)

Metar:
KMLB 012353Z 12006KT 10SM CLR 23/19 A3018 RMK AO2 SLP219 T02280194 10283 20228 53015

Time: 01-02-2023 6:53 pm EST